Decoded Metar for FJDG (DIEGO GARCIA ISLAND in DIEGO GARCIA ISLAND) (IATA:N/A) | Meteo·Mobile Aviation Weather
aviador You're here:

FJDG Decoded Metar

DIEGO GARCIA ISLAND in DIEGO GARCIA ISLAND
Report Time2019-07-16 11:55:00
UTC Time2019-07-16 12:01:27
Flight Rules vfr VFR
Wind140° at 13 Gusting to 20 kt
W.Decomp.*RWY 13: 12.4 kt HW 4.0 kt RCW
Visibility9999 m
Phenomena:N/A
Clouds:Few 017 Hf
Scattered 050 Hf
Overcast 080 Hf
Expected CloudBase > 800 ft AGL from Temp-Dew spread
Ceiling8,000 ft
Temp27°C (ISA +12)
Dew Point25°C (89% RH)
Heat Index30.6°C
QNH1011 hPa
Density Alt1,877 ft
Elevation10 ft
Report Wrong Elevation
Raw Report
METAR FJDG 161155Z 14013G20KT 9999 FEW017 SCT050 OVC080 27/25 A2985
RMK SLP105 T2 SET P0002 60072 70143 8/87/ T02660254 10290
20261 55003=

Extra information for FJDG:More info

Metar Taf Metar & Taf Last 4 Metars F.Rules Stats Wind Profile Meteogram Temp Stats Airport Information Weather charts Add Link Nearby VenuesMetar ALERT Operation Metar Decoded Social comments